createdAt,value
2019-06-20T06:02:37.497Z,23.45
2019-06-20T06:05:16.753Z,23.56
2019-06-20T06:13:48.477Z,23.78
2019-06-20T06:16:27.473Z,23.84
2019-06-20T06:18:55.091Z,23.91
2019-06-20T06:21:24.992Z,23.98
2019-06-20T06:23:54.843Z,24.05
2019-06-20T06:26:24.595Z,24.14
2019-06-20T06:28:54.191Z,24.24
2019-06-20T06:31:23.863Z,24.32
2019-06-20T06:33:56.744Z,24.41
2019-06-20T06:36:28.402Z,24.50
2019-06-20T06:38:58.383Z,24.60
2019-06-20T06:41:28.380Z,24.65
2019-06-20T06:43:59.546Z,24.75
2019-06-20T06:46:43.006Z,24.84
2019-06-20T06:49:00.564Z,24.93
2019-06-20T06:51:30.849Z,25.01
2019-06-20T06:54:00.421Z,25.07
2019-06-20T06:56:30.331Z,25.13
2019-06-20T06:59:00.151Z,25.17
2019-06-20T07:01:29.783Z,25.22
2019-06-20T07:03:59.572Z,25.29
2019-06-20T07:06:29.036Z,25.36
2019-06-20T07:08:58.616Z,25.42
2019-06-20T07:11:28.029Z,25.52
2019-06-20T07:13:57.505Z,25.63
2019-06-20T07:16:27.390Z,25.82
2019-06-20T07:18:57.278Z,26.12
2019-06-20T07:21:26.695Z,26.45
2019-06-20T07:23:56.102Z,26.83
2019-06-20T07:26:25.532Z,27.18
2019-06-20T07:28:55.262Z,27.49
2019-06-20T07:31:24.671Z,27.66
2019-06-20T07:33:54.072Z,27.81
2019-06-20T07:36:23.490Z,28.03
2019-06-20T07:38:52.892Z,28.21
2019-06-20T07:41:22.598Z,28.39
2019-06-20T07:43:51.988Z,28.54
2019-06-20T07:46:21.466Z,28.88
2019-06-20T07:48:51.049Z,29.46
2019-06-20T07:51:20.509Z,30.17
2019-06-20T07:53:49.884Z,30.66
2019-06-20T07:56:19.629Z,30.94
2019-06-20T07:58:49.292Z,31.06
2019-06-20T08:01:18.955Z,31.05
2019-06-20T08:03:49.307Z,30.97
2019-06-20T08:06:18.712Z,30.84
2019-06-20T08:08:48.242Z,30.65
2019-06-20T08:11:17.914Z,30.42
2019-06-20T08:13:47.355Z,30.18
2019-06-20T08:16:16.834Z,29.97
2019-06-20T08:18:46.470Z,29.75
2019-06-20T08:21:16.220Z,29.66
2019-06-20T08:23:45.710Z,29.86
2019-06-20T08:26:15.167Z,30.11
2019-06-20T08:28:44.582Z,30.34
2019-06-20T08:31:13.984Z,30.64
2019-06-20T08:33:43.692Z,30.91
2019-06-20T08:36:13.416Z,31.17
2019-06-20T08:38:43.061Z,31.51
2019-06-20T08:41:12.725Z,32.15
2019-06-20T08:43:42.443Z,32.62
2019-06-20T08:46:11.993Z,32.93
2019-06-20T08:48:41.693Z,33.17
2019-06-20T08:51:14.462Z,33.50
2019-06-20T08:53:42.733Z,33.79
2019-06-20T08:56:12.325Z,33.95
2019-06-20T08:58:41.971Z,34.01
2019-06-20T09:01:11.403Z,33.99
2019-06-20T09:03:41.261Z,33.95
2019-06-20T09:06:11.117Z,33.88
2019-06-20T09:08:40.577Z,33.71
2019-06-20T09:11:09.942Z,33.56
2019-06-20T09:13:40.637Z,33.56
2019-06-20T09:16:23.855Z,33.72
2019-06-20T09:18:41.325Z,33.97
2019-06-20T09:21:10.851Z,34.22
2019-06-20T09:23:40.608Z,34.42
2019-06-20T09:26:10.000Z,34.58
2019-06-20T09:28:40.364Z,34.58
2019-06-20T09:31:10.443Z,34.35
2019-06-20T09:33:40.285Z,34.04
2019-06-20T09:36:10.711Z,33.78
2019-06-20T09:38:40.847Z,33.56
2019-06-20T09:41:10.826Z,33.35
2019-06-20T09:43:41.137Z,33.12
2019-06-20T09:46:10.919Z,32.84
2019-06-20T09:48:41.040Z,32.55
2019-06-20T09:51:11.190Z,32.23
2019-06-20T09:53:41.305Z,31.93
2019-06-20T09:56:11.579Z,31.63
2019-06-20T09:58:41.496Z,31.31
2019-06-20T10:01:11.728Z,31.00
2019-06-20T10:03:41.969Z,30.67
2019-06-20T10:06:14.309Z,30.36
2019-06-20T10:08:43.767Z,30.06
2019-06-20T10:11:13.621Z,29.79
2019-06-20T10:13:43.350Z,29.54
2019-06-20T10:16:12.750Z,29.34
2019-06-20T10:18:42.510Z,29.21
2019-06-20T10:21:12.738Z,29.10
2019-06-20T10:23:42.851Z,29.03
2019-06-20T10:26:13.389Z,28.96
2019-06-20T10:28:44.601Z,28.94
2019-06-20T10:31:14.303Z,28.98
2019-06-20T10:33:45.162Z,29.04
2019-06-20T10:36:15.154Z,29.12
2019-06-20T10:38:45.303Z,29.22
2019-06-20T10:41:15.961Z,29.37
2019-06-20T10:43:45.826Z,29.61
2019-06-20T10:46:15.553Z,30.11
2019-06-20T10:48:45.982Z,30.72
2019-06-20T10:51:23.207Z,31.21
2019-06-20T10:53:53.412Z,31.59
2019-06-20T10:56:22.764Z,31.81
2019-06-20T10:58:52.233Z,31.93
2019-06-20T11:01:21.905Z,31.97
2019-06-20T11:03:51.400Z,32.01
2019-06-20T11:06:21.108Z,32.12
2019-06-20T11:08:50.897Z,32.45
2019-06-20T11:11:20.629Z,32.81
2019-06-20T11:13:50.324Z,33.06
2019-06-20T11:16:19.829Z,33.13
2019-06-20T11:18:49.209Z,33.15
2019-06-20T11:21:18.640Z,33.11
2019-06-20T11:23:48.009Z,33.11
2019-06-20T11:26:17.421Z,33.06
2019-06-20T11:28:46.829Z,33.00
2019-06-20T11:31:16.368Z,32.99
2019-06-20T11:33:46.349Z,33.09
2019-06-20T11:36:16.816Z,33.23
2019-06-20T11:38:46.906Z,33.31
2019-06-20T11:41:16.636Z,33.32
2019-06-20T11:43:46.891Z,33.31
2019-06-20T11:46:16.777Z,33.24
2019-06-20T11:48:47.190Z,33.16
2019-06-20T11:51:17.239Z,33.08
2019-06-20T11:53:47.345Z,32.96
2019-06-20T11:56:17.026Z,32.82
2019-06-20T11:58:47.274Z,32.72
2019-06-20T12:01:32.089Z,32.60
2019-06-20T12:03:49.043Z,32.45
2019-06-20T12:06:18.479Z,32.25
2019-06-20T12:08:49.036Z,32.02
2019-06-20T12:11:18.696Z,31.81
2019-06-20T12:13:48.578Z,31.56
2019-06-20T12:16:18.407Z,31.29
2019-06-20T12:18:49.453Z,31.02
2019-06-20T12:21:18.912Z,30.73
2019-06-20T12:23:49.018Z,30.50
2019-06-20T12:26:18.949Z,30.26
2019-06-20T12:28:48.818Z,30.05
2019-06-20T12:31:19.979Z,29.86
2019-06-20T12:33:49.638Z,29.63
2019-06-20T12:36:19.384Z,29.40
2019-06-20T12:38:50.901Z,29.21
2019-06-20T12:41:20.511Z,29.00
2019-06-20T12:43:50.318Z,28.82
2019-06-20T12:46:19.826Z,28.68
2019-06-20T12:48:49.943Z,28.54
2019-06-20T12:51:19.690Z,28.42
2019-06-20T12:53:50.943Z,28.30
2019-06-20T12:56:20.604Z,28.27
2019-06-20T12:58:50.325Z,28.26
2019-06-20T13:01:34.827Z,28.27
2019-06-20T13:03:52.140Z,28.28
2019-06-20T13:06:21.546Z,28.26
2019-06-20T13:08:50.982Z,28.22
2019-06-20T13:11:20.422Z,28.17
2019-06-20T13:13:53.479Z,28.13
2019-06-20T13:16:22.900Z,28.08
2019-06-20T13:18:52.303Z,28.01
2019-06-20T13:21:22.089Z,27.91
2019-06-20T13:23:51.484Z,27.81
2019-06-20T13:26:20.958Z,27.71
2019-06-20T13:29:03.540Z,27.63
2019-06-20T13:31:22.127Z,27.54
2019-06-20T13:33:51.791Z,27.46
2019-06-20T13:36:21.161Z,27.41
2019-06-20T13:38:51.310Z,27.36
2019-06-20T13:41:21.067Z,27.33
2019-06-20T13:43:51.218Z,27.28
2019-06-20T13:46:21.265Z,27.23
2019-06-20T13:48:51.306Z,27.19
2019-06-20T13:51:21.446Z,27.16
2019-06-20T13:53:51.722Z,27.13
2019-06-20T13:56:21.579Z,27.09
2019-06-20T13:58:52.038Z,27.07
2019-06-20T14:01:21.811Z,27.08
2019-06-20T14:03:52.067Z,27.10
2019-06-20T14:06:22.233Z,27.13
2019-06-20T14:08:52.353Z,27.17
2019-06-20T14:11:22.454Z,27.21
2019-06-20T14:13:52.991Z,27.25
2019-06-20T14:16:22.601Z,27.32
2019-06-20T14:18:52.375Z,27.39
2019-06-20T14:21:22.444Z,27.47
2019-06-20T14:23:53.844Z,27.54
2019-06-20T14:26:23.541Z,27.62
2019-06-20T14:28:53.199Z,27.68
2019-06-20T14:31:22.951Z,27.76
2019-06-20T14:33:53.515Z,27.82
2019-06-20T14:36:23.080Z,27.94
2019-06-20T14:38:53.813Z,28.06
2019-06-20T14:41:24.257Z,28.17
2019-06-20T14:43:53.928Z,28.32
2019-06-20T14:46:23.682Z,28.46
2019-06-20T14:48:54.244Z,28.64
2019-06-20T14:51:23.796Z,28.77
2019-06-20T14:53:54.550Z,28.90
2019-06-20T14:56:24.147Z,29.03
2019-06-20T14:58:53.909Z,29.15
2019-06-20T15:01:23.930Z,29.29
2019-06-20T15:03:54.208Z,29.41
2019-06-20T15:06:24.582Z,29.57
2019-06-20T15:09:02.113Z,29.69
2019-06-20T15:11:25.490Z,29.86
2019-06-20T15:13:55.488Z,29.99
2019-06-20T15:16:25.244Z,30.09
2019-06-20T15:18:55.725Z,30.15
2019-06-20T15:21:25.839Z,30.19
2019-06-20T15:23:56.610Z,30.20
2019-06-20T15:26:26.164Z,30.18
2019-06-20T15:28:57.095Z,30.15
2019-06-20T15:31:26.764Z,30.12
2019-06-20T15:33:57.237Z,30.11
2019-06-20T15:36:26.693Z,30.13
2019-06-20T15:38:57.319Z,30.15
2019-06-20T15:41:26.871Z,30.21
2019-06-20T15:43:56.281Z,30.21
2019-06-20T15:46:25.970Z,30.21
2019-06-20T15:48:55.846Z,30.20
2019-06-20T15:51:25.704Z,30.19
2019-06-20T15:53:56.063Z,30.18
2019-06-20T15:56:26.211Z,30.15
2019-06-20T15:58:56.137Z,30.13
2019-06-20T16:01:26.285Z,30.12
2019-06-20T16:03:56.390Z,30.16
2019-06-20T16:06:26.852Z,30.23
2019-06-20T16:08:56.619Z,30.31
2019-06-20T16:11:26.839Z,30.39
2019-06-20T16:13:56.861Z,30.45
2019-06-20T16:16:26.996Z,30.48
2019-06-20T16:18:57.350Z,30.45
2019-06-20T16:21:27.472Z,30.42
2019-06-20T16:23:57.972Z,30.33
2019-06-20T16:26:27.477Z,30.23
2019-06-20T16:28:57.605Z,30.10
2019-06-20T16:31:27.788Z,30.00
2019-06-20T16:33:58.174Z,29.91
2019-06-20T16:36:28.094Z,29.80
2019-06-20T16:38:58.445Z,29.70
2019-06-20T16:41:28.176Z,29.61
2019-06-20T16:43:58.632Z,29.50
2019-06-20T16:46:28.683Z,29.43
2019-06-20T16:48:58.580Z,29.35
2019-06-20T16:51:28.788Z,29.27
2019-06-20T16:53:58.766Z,29.18
2019-06-20T16:56:28.845Z,29.12
2019-06-20T16:58:58.607Z,29.05
2019-06-20T17:01:28.921Z,28.96
2019-06-20T17:03:58.957Z,28.90
2019-06-20T17:06:28.785Z,28.79
2019-06-20T17:08:59.193Z,28.69
2019-06-20T17:11:29.199Z,28.61
2019-06-20T17:13:59.205Z,28.51
2019-06-20T17:16:29.143Z,28.45
2019-06-20T17:18:59.115Z,28.41
2019-06-20T17:21:29.564Z,28.38
2019-06-20T17:24:01.384Z,28.32
2019-06-20T17:26:30.905Z,28.28
2019-06-20T17:29:00.692Z,28.23
2019-06-20T17:31:30.262Z,28.20
2019-06-20T17:33:59.987Z,28.16
2019-06-20T17:36:30.097Z,28.11
2019-06-20T17:39:00.263Z,28.09
2019-06-20T17:41:30.672Z,28.06
2019-06-20T17:44:00.630Z,28.01
2019-06-20T17:46:30.993Z,27.94
2019-06-20T17:49:01.843Z,27.81
2019-06-20T17:51:31.413Z,27.72
2019-06-20T17:54:01.226Z,27.64
2019-06-20T17:56:31.161Z,27.56
2019-06-20T17:59:01.394Z,27.49
2019-06-20T18:01:31.839Z,27.40
2019-06-20T18:04:13.381Z,27.31
2019-06-20T18:06:33.475Z,27.20
2019-06-20T18:09:05.793Z,27.12
2019-06-20T18:11:35.175Z,27.06
2019-06-20T18:14:05.390Z,27.01
2019-06-20T18:16:34.830Z,26.96
2019-06-20T18:19:04.310Z,26.93
2019-06-20T18:21:33.696Z,26.89
2019-06-20T18:24:03.134Z,26.83
2019-06-20T18:26:32.537Z,26.76
2019-06-20T18:29:02.870Z,26.65
2019-06-20T18:31:33.019Z,26.52
2019-06-20T18:34:02.920Z,26.38
2019-06-20T18:36:33.281Z,26.25
2019-06-20T18:39:03.349Z,26.12
2019-06-20T18:41:33.614Z,26.02
2019-06-20T18:44:03.298Z,25.91
2019-06-20T18:46:33.644Z,25.82
2019-06-20T18:49:03.453Z,25.73
2019-06-20T18:51:33.607Z,25.64
2019-06-20T18:54:03.787Z,25.56
2019-06-20T18:56:34.207Z,25.48
2019-06-20T18:59:04.067Z,25.41
2019-06-20T19:01:34.422Z,25.37
2019-06-20T19:04:04.749Z,25.34
2019-06-20T19:06:36.238Z,25.30
2019-06-20T19:09:09.704Z,25.27
2019-06-20T19:11:39.338Z,25.23
2019-06-20T19:14:12.293Z,25.17
2019-06-20T19:16:40.211Z,25.11
2019-06-20T19:19:09.792Z,25.03
2019-06-20T19:21:39.181Z,24.96
2019-06-20T19:24:08.707Z,24.90
2019-06-20T19:26:38.130Z,24.84
2019-06-20T19:29:14.360Z,24.79
2019-06-20T19:31:43.748Z,24.69
2019-06-20T19:34:13.438Z,24.61
2019-06-20T19:36:43.083Z,24.53
2019-06-20T19:39:12.489Z,24.47
2019-06-20T19:41:41.903Z,24.43
2019-06-20T19:44:11.322Z,24.39
2019-06-20T19:46:40.858Z,24.36
2019-06-20T19:49:10.359Z,24.33
2019-06-20T19:51:40.055Z,24.30
2019-06-20T19:54:09.474Z,24.29
2019-06-20T19:56:39.042Z,24.25
2019-06-20T19:59:08.812Z,24.21
2019-06-20T20:01:38.485Z,24.18
2019-06-20T20:04:08.053Z,24.11
2019-06-20T20:06:37.524Z,24.05
2019-06-20T20:09:09.245Z,23.96
2019-06-20T20:11:38.974Z,23.89
2019-06-20T20:14:08.855Z,23.79
2019-06-20T20:16:38.649Z,23.71
2019-06-20T20:19:08.403Z,23.64
2019-06-20T20:21:38.097Z,23.56
2019-06-20T20:24:08.094Z,23.47
2019-06-20T20:26:38.248Z,23.41
2019-06-20T20:29:08.220Z,23.36
2019-06-20T20:31:38.603Z,23.32
2019-06-20T20:34:11.747Z,23.27
2019-06-20T20:36:40.400Z,23.22
2019-06-20T20:39:09.880Z,23.15
2019-06-20T20:41:39.353Z,23.10
2019-06-20T20:44:08.929Z,23.03
2019-06-20T20:46:38.884Z,22.98
2019-06-20T20:49:08.873Z,22.92
2019-06-20T20:51:39.023Z,22.85
2019-06-20T20:54:09.213Z,22.79
2019-06-20T20:56:39.350Z,22.74
2019-06-20T20:59:09.400Z,22.68
2019-06-20T21:01:39.477Z,22.63
2019-06-20T21:04:09.769Z,22.61
2019-06-20T21:06:39.593Z,22.59
2019-06-20T21:09:09.612Z,22.59
2019-06-20T21:11:40.007Z,22.59
2019-06-20T21:14:09.867Z,22.59
2019-06-20T21:16:39.919Z,22.61
2019-06-20T21:19:10.336Z,22.61
2019-06-20T21:21:40.605Z,22.62
2019-06-20T21:24:10.662Z,22.62
2019-06-20T21:26:49.380Z,22.62
2019-06-20T21:29:11.965Z,22.60
2019-06-20T21:31:41.379Z,22.59
2019-06-20T21:34:10.906Z,22.57
2019-06-20T21:36:40.921Z,22.55
2019-06-20T21:39:11.146Z,22.54
2019-06-20T21:41:41.190Z,22.51
2019-06-20T21:44:11.542Z,22.48
2019-06-20T21:46:41.340Z,22.44
2019-06-20T21:49:11.497Z,22.40
2019-06-20T21:51:44.535Z,22.38
2019-06-20T21:54:13.010Z,22.34
2019-06-20T21:56:43.082Z,22.31
2019-06-20T21:59:13.229Z,22.29
2019-06-20T22:01:43.489Z,22.29
2019-06-20T22:04:13.251Z,22.30
2019-06-20T22:06:43.435Z,22.31
2019-06-20T22:09:13.952Z,22.31
2019-06-20T22:11:43.864Z,22.29
2019-06-20T22:14:15.930Z,22.27
2019-06-20T22:16:45.474Z,22.23
2019-06-20T22:19:15.157Z,22.17
2019-06-20T22:21:44.586Z,22.11
2019-06-20T22:24:14.319Z,22.05
2019-06-20T22:26:44.603Z,21.98
2019-06-20T22:29:14.485Z,21.92
2019-06-20T22:31:44.680Z,21.84
2019-06-20T22:34:14.851Z,21.79
2019-06-20T22:36:44.945Z,21.72
2019-06-20T22:39:14.803Z,21.65
2019-06-20T22:41:44.864Z,21.57
2019-06-20T22:44:14.552Z,21.50
2019-06-20T22:46:45.072Z,21.43
2019-06-20T22:49:15.808Z,21.38
2019-06-20T22:51:45.753Z,21.33
2019-06-20T22:54:15.900Z,21.32
2019-06-20T22:56:45.631Z,21.30
2019-06-20T22:59:16.069Z,21.31
2019-06-20T23:01:46.134Z,21.31
2019-06-20T23:04:15.902Z,21.30
2019-06-20T23:06:55.938Z,21.30
2019-06-20T23:09:17.399Z,21.29
2019-06-20T23:11:47.196Z,21.29
2019-06-20T23:14:16.938Z,21.28
2019-06-20T23:16:46.595Z,21.27
2019-06-20T23:19:16.809Z,21.28
2019-06-20T23:21:46.655Z,21.31
2019-06-20T23:24:16.835Z,21.34
2019-06-20T23:26:47.187Z,21.36
2019-06-20T23:29:22.549Z,21.36
2019-06-20T23:31:56.765Z,21.37
2019-06-20T23:34:27.047Z,21.35
2019-06-20T23:37:11.686Z,21.34
2019-06-20T23:39:28.545Z,21.33
2019-06-20T23:41:58.139Z,21.34
2019-06-20T23:44:27.939Z,21.32
2019-06-20T23:46:57.744Z,21.35
2019-06-20T23:49:27.376Z,21.35
2019-06-20T23:51:58.396Z,21.33
2019-06-20T23:54:28.391Z,21.33
2019-06-20T23:56:57.822Z,21.33
2019-06-20T23:59:27.309Z,21.31
